createdAt,value
2018-07-31T00:00:36.354Z,24.33
2018-07-31T00:03:06.089Z,24.31
2018-07-31T00:05:35.737Z,24.30
2018-07-31T00:08:05.276Z,24.25
2018-07-31T00:10:35.016Z,24.26
2018-07-31T00:13:05.315Z,24.29
2018-07-31T00:15:35.098Z,24.23
2018-07-31T00:18:04.678Z,24.11
2018-07-31T00:20:34.224Z,24.16
2018-07-31T00:23:04.258Z,24.03
2018-07-31T00:25:34.308Z,24.00
2018-07-31T00:28:03.875Z,23.98
2018-07-31T00:30:33.535Z,24.02
2018-07-31T00:33:03.202Z,23.93
2018-07-31T00:35:32.819Z,23.84
2018-07-31T00:38:02.548Z,23.86
2018-07-31T00:40:32.364Z,23.88
2018-07-31T00:43:01.893Z,23.92
2018-07-31T00:45:32.067Z,23.87
2018-07-31T00:48:02.032Z,23.83
2018-07-31T00:50:31.349Z,23.84
2018-07-31T00:53:00.645Z,23.81
2018-07-31T00:55:30.365Z,23.80
2018-07-31T00:57:59.898Z,23.78
2018-07-31T01:00:29.336Z,23.75
2018-07-31T01:02:59.261Z,23.76
2018-07-31T01:05:28.784Z,23.77
2018-07-31T01:07:58.412Z,23.72
2018-07-31T01:10:28.303Z,23.69
2018-07-31T01:12:58.300Z,23.67
2018-07-31T01:15:27.695Z,23.64
2018-07-31T01:17:57.611Z,23.58
2018-07-31T01:20:27.597Z,23.54
2018-07-31T01:22:56.942Z,23.52
2018-07-31T01:25:26.640Z,23.50
2018-07-31T01:27:56.493Z,23.48
2018-07-31T01:30:25.737Z,23.50
2018-07-31T01:32:55.535Z,23.50
2018-07-31T01:35:25.197Z,23.52
2018-07-31T01:37:54.576Z,23.53
2018-07-31T01:40:24.292Z,23.55
2018-07-31T01:42:54.300Z,23.52
2018-07-31T01:45:23.799Z,23.50
2018-07-31T01:47:53.430Z,23.49
2018-07-31T01:50:23.056Z,23.44
2018-07-31T01:52:52.394Z,23.42
2018-07-31T01:55:21.994Z,23.41
2018-07-31T01:57:52.028Z,23.43
2018-07-31T02:00:21.958Z,23.43
2018-07-31T02:02:51.359Z,23.42
2018-07-31T02:05:21.000Z,23.37
2018-07-31T02:07:50.505Z,23.34
2018-07-31T02:10:20.348Z,23.31
2018-07-31T02:12:49.981Z,23.31
2018-07-31T02:15:19.711Z,23.28
2018-07-31T02:17:49.350Z,23.22
2018-07-31T02:20:18.941Z,23.13
2018-07-31T02:22:48.703Z,23.08
2018-07-31T02:25:18.255Z,23.06
2018-07-31T02:27:48.155Z,23.08
2018-07-31T02:30:21.751Z,23.07
2018-07-31T02:32:52.047Z,23.08
2018-07-31T02:35:21.531Z,23.06
2018-07-31T02:37:51.693Z,23.02
2018-07-31T02:40:21.246Z,22.97
2018-07-31T02:42:50.546Z,22.95
2018-07-31T02:45:20.418Z,22.97
2018-07-31T02:47:50.294Z,22.97
2018-07-31T02:50:19.976Z,23.00
2018-07-31T02:52:49.936Z,23.01
2018-07-31T02:55:19.509Z,23.01
2018-07-31T02:57:49.156Z,23.01
2018-07-31T03:00:18.879Z,23.01
2018-07-31T03:02:48.420Z,22.99
2018-07-31T03:05:17.681Z,22.98
2018-07-31T03:07:47.440Z,23.02
2018-07-31T03:10:17.222Z,23.03
2018-07-31T03:12:46.742Z,23.06
2018-07-31T03:15:16.375Z,23.10
2018-07-31T03:17:46.058Z,23.15
2018-07-31T03:20:15.664Z,23.22
2018-07-31T03:22:45.515Z,23.21
2018-07-31T03:25:15.242Z,23.23
2018-07-31T03:27:44.772Z,23.23
2018-07-31T03:30:14.517Z,23.22
2018-07-31T03:32:44.142Z,23.23
2018-07-31T03:35:13.381Z,23.23
2018-07-31T03:37:43.305Z,23.21
2018-07-31T03:40:12.801Z,23.14
2018-07-31T03:42:42.120Z,23.06
2018-07-31T03:45:11.618Z,23.03
2018-07-31T03:47:41.250Z,23.00
2018-07-31T03:50:10.875Z,23.00
2018-07-31T03:52:40.598Z,22.97
2018-07-31T03:55:10.050Z,22.95
2018-07-31T03:57:39.567Z,22.94
2018-07-31T04:00:09.484Z,22.92
2018-07-31T04:02:39.193Z,22.87
2018-07-31T04:05:08.741Z,22.91
2018-07-31T04:07:38.616Z,22.98
2018-07-31T04:10:08.010Z,23.05
2018-07-31T04:12:37.726Z,23.11
2018-07-31T04:15:07.413Z,23.18
2018-07-31T04:17:36.841Z,23.27
2018-07-31T04:20:06.962Z,23.36
2018-07-31T04:22:36.679Z,23.41
2018-07-31T04:25:06.544Z,23.44
2018-07-31T04:27:36.132Z,23.49
2018-07-31T04:30:05.820Z,23.54
2018-07-31T04:32:35.374Z,23.59
2018-07-31T04:35:05.156Z,23.67
2018-07-31T04:37:34.956Z,23.75
2018-07-31T04:40:04.486Z,23.79
2018-07-31T04:42:33.870Z,23.87
2018-07-31T04:45:03.716Z,23.93
2018-07-31T04:47:33.170Z,24.01
2018-07-31T04:50:02.977Z,24.08
2018-07-31T04:52:32.880Z,24.15
2018-07-31T04:55:02.325Z,24.21
2018-07-31T04:57:31.961Z,24.24
2018-07-31T05:00:01.667Z,24.31
2018-07-31T05:02:31.291Z,24.39
2018-07-31T05:05:00.753Z,24.42
2018-07-31T05:07:30.569Z,24.44
2018-07-31T05:09:59.976Z,24.51
2018-07-31T05:12:29.547Z,24.61
2018-07-31T05:14:59.335Z,24.69
2018-07-31T05:17:28.783Z,24.73
2018-07-31T05:19:58.372Z,24.86
2018-07-31T05:22:28.267Z,24.92
2018-07-31T05:24:58.138Z,24.97
2018-07-31T05:27:27.607Z,25.04
2018-07-31T05:29:57.952Z,25.08
2018-07-31T05:32:27.448Z,25.09
2018-07-31T05:34:56.793Z,25.12
2018-07-31T05:37:26.791Z,25.14
2018-07-31T05:39:57.005Z,25.16
2018-07-31T05:42:26.451Z,25.18
2018-07-31T05:44:56.171Z,25.19
2018-07-31T05:47:25.566Z,25.22
2018-07-31T05:49:54.831Z,25.26
2018-07-31T05:52:24.609Z,25.33
2018-07-31T05:54:54.424Z,25.45
2018-07-31T05:57:23.837Z,25.53
2018-07-31T05:59:53.496Z,25.64
2018-07-31T06:02:23.212Z,25.77
2018-07-31T06:04:52.872Z,25.86
2018-07-31T06:07:22.509Z,25.98
2018-07-31T06:09:52.296Z,26.09
2018-07-31T06:12:22.005Z,26.18
2018-07-31T06:14:51.604Z,26.26
2018-07-31T06:17:21.276Z,26.34
2018-07-31T06:19:50.977Z,26.43
2018-07-31T06:22:20.839Z,26.50
2018-07-31T06:24:50.228Z,26.52
2018-07-31T06:27:19.923Z,26.52
2018-07-31T06:29:49.868Z,26.52
2018-07-31T06:32:19.390Z,26.53
2018-07-31T06:34:49.001Z,26.55
2018-07-31T06:37:18.762Z,26.57
2018-07-31T06:39:47.937Z,26.60
2018-07-31T06:42:17.621Z,26.63
2018-07-31T06:44:47.023Z,26.64
2018-07-31T06:47:16.504Z,26.68
2018-07-31T06:49:46.139Z,26.75
2018-07-31T06:52:15.744Z,26.82
2018-07-31T06:54:45.368Z,26.89
2018-07-31T06:57:14.781Z,26.99
2018-07-31T06:59:45.044Z,27.07
2018-07-31T07:02:14.476Z,27.17
2018-07-31T07:04:44.077Z,27.24
2018-07-31T07:07:13.701Z,27.26
2018-07-31T07:09:43.776Z,27.33
2018-07-31T07:12:13.804Z,27.41
2018-07-31T07:14:43.472Z,27.48
2018-07-31T07:17:13.115Z,27.52
2018-07-31T07:19:42.885Z,27.51
2018-07-31T07:22:12.788Z,27.53
2018-07-31T07:24:42.739Z,27.63
2018-07-31T07:27:12.197Z,27.72
2018-07-31T07:29:42.339Z,27.74
2018-07-31T07:32:11.913Z,27.79
2018-07-31T07:34:41.366Z,27.91
2018-07-31T07:37:11.340Z,27.97
2018-07-31T07:39:41.056Z,27.97
2018-07-31T07:42:10.959Z,28.03
2018-07-31T07:44:40.688Z,28.08
2018-07-31T07:47:10.600Z,28.13
2018-07-31T07:49:40.633Z,28.23
2018-07-31T07:52:10.451Z,28.39
2018-07-31T07:54:40.130Z,28.76
2018-07-31T07:57:10.266Z,30.35
2018-07-31T07:59:39.626Z,31.73
2018-07-31T08:02:09.311Z,32.41
2018-07-31T08:04:39.275Z,32.80
2018-07-31T08:07:08.776Z,32.98
2018-07-31T08:09:38.530Z,33.13
2018-07-31T08:12:07.947Z,32.91
2018-07-31T08:14:37.464Z,33.16
2018-07-31T08:17:07.342Z,33.22
2018-07-31T08:19:37.343Z,32.14
2018-07-31T08:22:07.042Z,31.58
2018-07-31T08:24:36.959Z,31.25
2018-07-31T08:27:06.677Z,31.08
2018-07-31T08:29:36.307Z,30.95
2018-07-31T08:32:06.080Z,30.86
2018-07-31T08:34:36.075Z,30.78
2018-07-31T08:37:08.514Z,30.79
2018-07-31T08:39:38.383Z,31.04
2018-07-31T08:42:08.076Z,31.15
2018-07-31T08:44:37.646Z,31.43
2018-07-31T08:47:07.683Z,31.61
2018-07-31T08:49:37.397Z,31.58
2018-07-31T08:52:06.849Z,31.67
2018-07-31T08:54:36.637Z,31.94
2018-07-31T08:57:08.680Z,32.03
2018-07-31T08:59:38.738Z,32.27
2018-07-31T09:02:08.466Z,32.08
2018-07-31T09:04:38.554Z,32.01
2018-07-31T09:07:08.403Z,31.92
2018-07-31T09:09:37.952Z,32.00
2018-07-31T09:12:07.582Z,32.22
2018-07-31T09:14:37.303Z,32.25
2018-07-31T09:17:06.939Z,32.25
2018-07-31T09:19:36.991Z,32.23
2018-07-31T09:22:06.642Z,32.21
2018-07-31T09:24:36.716Z,32.58
2018-07-31T09:27:06.241Z,32.70
2018-07-31T09:29:36.023Z,32.60
2018-07-31T09:32:05.671Z,32.80
2018-07-31T09:34:50.090Z,32.73
2018-07-31T09:37:19.699Z,32.69
2018-07-31T09:39:49.817Z,32.73
2018-07-31T09:42:19.634Z,32.71
2018-07-31T09:44:49.331Z,32.67
2018-07-31T09:47:19.025Z,32.76
2018-07-31T09:49:48.820Z,32.87
2018-07-31T09:52:18.576Z,32.91
2018-07-31T09:54:48.581Z,32.83
2018-07-31T09:57:18.437Z,32.83
2018-07-31T09:59:47.955Z,32.89
2018-07-31T10:02:17.858Z,33.14
2018-07-31T10:04:47.568Z,33.12
2018-07-31T10:07:17.479Z,32.98
2018-07-31T10:09:47.002Z,32.85
2018-07-31T10:12:17.068Z,32.69
2018-07-31T10:14:46.601Z,32.79
2018-07-31T10:17:16.594Z,33.03
2018-07-31T10:19:46.546Z,32.89
2018-07-31T10:22:16.345Z,32.80
2018-07-31T10:24:46.207Z,32.75
2018-07-31T10:27:15.941Z,32.59
2018-07-31T10:29:45.764Z,32.43
2018-07-31T10:32:15.271Z,32.33
2018-07-31T10:34:45.158Z,32.24
2018-07-31T10:37:15.596Z,32.33
2018-07-31T10:39:45.241Z,32.35
2018-07-31T10:42:14.737Z,32.24
2018-07-31T10:44:44.355Z,32.33
2018-07-31T10:47:13.705Z,32.33
2018-07-31T10:49:43.351Z,32.38
2018-07-31T10:52:13.055Z,32.28
2018-07-31T10:54:42.630Z,32.28
2018-07-31T10:57:12.037Z,32.34
2018-07-31T10:59:42.193Z,32.36
2018-07-31T11:02:11.750Z,32.50
2018-07-31T11:04:41.191Z,32.65
2018-07-31T11:07:11.156Z,32.66
2018-07-31T11:09:40.807Z,32.56
2018-07-31T11:12:10.220Z,32.72
2018-07-31T11:14:40.439Z,32.79
2018-07-31T11:17:12.927Z,32.68
2018-07-31T11:19:42.733Z,32.71
2018-07-31T11:22:12.262Z,32.76
2018-07-31T11:24:42.141Z,32.60
2018-07-31T11:27:11.895Z,32.49
2018-07-31T11:29:41.306Z,32.54
2018-07-31T11:32:10.735Z,32.72
2018-07-31T11:34:40.975Z,32.79
2018-07-31T11:37:10.525Z,32.94
2018-07-31T11:39:40.370Z,32.91
2018-07-31T11:42:10.060Z,32.99
2018-07-31T11:44:39.668Z,32.82
2018-07-31T11:47:09.299Z,32.88
2018-07-31T11:49:39.065Z,32.93
2018-07-31T11:52:08.350Z,33.00
2018-07-31T11:54:37.986Z,32.96
2018-07-31T11:57:08.226Z,32.69
2018-07-31T11:59:37.601Z,32.52
2018-07-31T12:02:07.389Z,32.48
2018-07-31T12:04:37.097Z,32.52
2018-07-31T12:07:06.488Z,32.44
2018-07-31T12:09:36.221Z,32.42
2018-07-31T12:12:06.944Z,32.52
2018-07-31T12:14:36.671Z,32.68
2018-07-31T12:17:06.830Z,32.74
2018-07-31T12:19:36.746Z,32.91
2018-07-31T12:22:06.592Z,32.83
2018-07-31T12:24:36.297Z,32.88
2018-07-31T12:27:06.222Z,33.00
2018-07-31T12:29:36.067Z,33.19
2018-07-31T12:32:05.670Z,33.21
2018-07-31T12:34:35.816Z,33.09
2018-07-31T12:37:06.128Z,32.99
2018-07-31T12:39:35.991Z,32.90
2018-07-31T12:42:06.125Z,33.00
2018-07-31T12:44:35.558Z,32.90
2018-07-31T12:47:04.833Z,32.94
2018-07-31T12:49:34.549Z,32.91
2018-07-31T12:52:04.369Z,32.82
2018-07-31T12:54:34.135Z,33.08
2018-07-31T12:57:04.294Z,33.43
2018-07-31T12:59:34.160Z,33.64
2018-07-31T13:02:04.297Z,33.72
2018-07-31T13:04:34.632Z,33.70
2018-07-31T13:07:04.933Z,33.13
2018-07-31T13:09:34.993Z,33.00
2018-07-31T13:12:05.793Z,33.00
2018-07-31T13:14:35.752Z,33.20
2018-07-31T13:17:06.652Z,33.17
2018-07-31T13:19:36.095Z,33.31
2018-07-31T13:22:05.679Z,33.13
2018-07-31T13:24:35.763Z,33.06
2018-07-31T13:27:05.348Z,33.14
2018-07-31T13:29:35.188Z,33.09
2018-07-31T13:32:05.182Z,33.06
2018-07-31T13:34:35.329Z,32.86
2018-07-31T13:37:04.910Z,32.93
2018-07-31T13:39:34.733Z,32.84
2018-07-31T13:42:04.308Z,32.85
2018-07-31T13:44:33.901Z,32.76
2018-07-31T13:47:03.631Z,32.73
2018-07-31T13:49:33.233Z,32.70
2018-07-31T13:52:03.006Z,32.51
2018-07-31T13:54:32.694Z,32.63
2018-07-31T13:57:02.200Z,32.80
2018-07-31T13:59:31.776Z,32.91
2018-07-31T14:02:01.744Z,32.83
2018-07-31T14:04:31.325Z,32.91
2018-07-31T14:07:00.864Z,32.82
2018-07-31T14:09:30.664Z,32.52
2018-07-31T14:12:00.086Z,32.57
2018-07-31T14:14:29.612Z,32.36
2018-07-31T14:16:59.464Z,32.43
2018-07-31T14:19:28.757Z,32.42
2018-07-31T14:21:58.190Z,32.35
2018-07-31T14:24:27.839Z,32.30
2018-07-31T14:26:57.168Z,32.10
2018-07-31T14:29:26.633Z,32.08
2018-07-31T14:31:56.312Z,31.89
2018-07-31T14:34:25.983Z,31.73
2018-07-31T14:36:55.490Z,31.86
2018-07-31T14:39:25.442Z,32.06
2018-07-31T14:41:55.066Z,32.04
2018-07-31T14:44:24.684Z,31.93
2018-07-31T14:46:54.481Z,31.85
2018-07-31T14:49:23.903Z,31.82
2018-07-31T14:51:53.603Z,31.75
2018-07-31T14:54:23.115Z,31.77
2018-07-31T14:56:52.479Z,31.71
2018-07-31T14:59:22.157Z,31.40
2018-07-31T15:01:51.792Z,31.37
2018-07-31T15:04:21.335Z,31.54
2018-07-31T15:06:51.283Z,31.32
2018-07-31T15:09:20.699Z,31.16
2018-07-31T15:11:50.416Z,31.14
2018-07-31T15:14:19.849Z,31.05
2018-07-31T15:16:49.585Z,31.09
2018-07-31T15:19:19.272Z,31.27
2018-07-31T15:21:48.972Z,31.30
2018-07-31T15:24:18.567Z,31.20
2018-07-31T15:26:47.979Z,31.36
2018-07-31T15:29:17.583Z,31.45
2018-07-31T15:31:47.289Z,31.53
2018-07-31T15:34:16.595Z,31.51
2018-07-31T15:36:46.099Z,31.51
2018-07-31T15:39:15.627Z,31.49
2018-07-31T15:41:45.035Z,31.54
2018-07-31T15:44:14.481Z,31.58
2018-07-31T15:46:44.674Z,31.59
2018-07-31T15:49:14.256Z,31.61
2018-07-31T15:51:44.084Z,31.65
2018-07-31T15:54:13.840Z,31.66
2018-07-31T15:56:43.160Z,31.54
2018-07-31T15:59:13.086Z,31.44
2018-07-31T16:01:43.149Z,31.46
2018-07-31T16:04:12.456Z,31.51
2018-07-31T16:06:42.257Z,31.57
2018-07-31T16:09:12.743Z,31.60
2018-07-31T16:11:42.395Z,31.56
2018-07-31T16:14:11.553Z,31.53
2018-07-31T16:16:41.237Z,31.56
2018-07-31T16:19:10.982Z,31.55
2018-07-31T16:21:40.138Z,31.47
2018-07-31T16:24:10.238Z,31.42
2018-07-31T16:26:40.011Z,31.39
2018-07-31T16:29:09.528Z,31.37
2018-07-31T16:31:39.578Z,31.35
2018-07-31T16:34:09.200Z,31.37
2018-07-31T16:36:38.649Z,31.36
2018-07-31T16:39:10.253Z,31.32
2018-07-31T16:41:39.760Z,31.12
2018-07-31T16:44:09.227Z,30.85
2018-07-31T16:46:39.221Z,30.72
2018-07-31T16:49:08.635Z,30.59
2018-07-31T16:51:38.124Z,30.49
2018-07-31T16:54:07.834Z,30.44
2018-07-31T16:56:37.361Z,30.38
2018-07-31T16:59:07.044Z,30.36
2018-07-31T17:01:36.732Z,30.40
2018-07-31T17:04:06.138Z,30.45
2018-07-31T17:06:35.649Z,30.50
2018-07-31T17:09:06.978Z,30.52
2018-07-31T17:11:36.853Z,30.48
2018-07-31T17:14:08.085Z,30.51
2018-07-31T17:16:38.296Z,30.51
2018-07-31T17:19:08.215Z,30.47
2018-07-31T17:21:38.153Z,30.45
2018-07-31T17:24:08.055Z,30.44
2018-07-31T17:26:37.625Z,30.42
2018-07-31T17:29:07.353Z,30.40
2018-07-31T17:31:37.206Z,30.39
2018-07-31T17:34:06.973Z,30.38
2018-07-31T17:36:36.627Z,30.26
2018-07-31T17:39:09.036Z,30.19
2018-07-31T17:41:38.998Z,30.14
2018-07-31T17:44:08.727Z,30.09
2018-07-31T17:46:38.212Z,29.99
2018-07-31T17:49:08.259Z,30.02
2018-07-31T17:51:37.886Z,30.02
2018-07-31T17:54:07.404Z,30.01
2018-07-31T17:56:37.341Z,30.01
2018-07-31T17:59:06.874Z,30.03
2018-07-31T18:01:36.551Z,30.04
2018-07-31T18:04:06.318Z,30.03
2018-07-31T18:06:35.681Z,30.02
2018-07-31T18:09:06.927Z,29.97
2018-07-31T18:11:36.876Z,29.94
2018-07-31T18:14:06.618Z,29.96
2018-07-31T18:16:36.300Z,29.90
2018-07-31T18:19:06.222Z,29.99
2018-07-31T18:21:35.847Z,29.99
2018-07-31T18:24:06.735Z,29.96
2018-07-31T18:26:37.125Z,29.98
2018-07-31T18:29:06.992Z,29.97
2018-07-31T18:31:36.522Z,29.96
2018-07-31T18:34:06.246Z,29.89
2018-07-31T18:36:35.977Z,29.87
2018-07-31T18:39:07.526Z,29.83
2018-07-31T18:41:37.412Z,29.80
2018-07-31T18:44:06.999Z,29.81
2018-07-31T18:46:36.781Z,29.82
2018-07-31T18:49:06.681Z,29.74
2018-07-31T18:51:36.397Z,29.59
2018-07-31T18:54:06.671Z,29.29
2018-07-31T18:56:36.377Z,28.91
2018-07-31T18:59:06.044Z,28.37
2018-07-31T19:01:36.304Z,28.22
2018-07-31T19:04:06.762Z,27.90
2018-07-31T19:06:36.380Z,27.56
2018-07-31T19:09:10.873Z,26.88
2018-07-31T19:11:41.266Z,26.31
2018-07-31T19:14:10.964Z,26.04
2018-07-31T19:16:40.678Z,25.76
2018-07-31T19:19:10.232Z,25.75
2018-07-31T19:21:40.562Z,25.19
2018-07-31T19:24:10.371Z,24.96
2018-07-31T19:26:39.983Z,24.76
2018-07-31T19:29:09.716Z,24.79
2018-07-31T19:31:39.532Z,24.71
2018-07-31T19:34:09.000Z,24.82
2018-07-31T19:36:38.625Z,24.89
2018-07-31T19:39:09.921Z,24.79
2018-07-31T19:41:40.025Z,24.65
2018-07-31T19:44:10.093Z,24.66
2018-07-31T19:46:39.826Z,24.44
2018-07-31T19:49:09.897Z,24.51
2018-07-31T19:51:39.368Z,24.25
2018-07-31T19:54:08.968Z,24.19
2018-07-31T19:56:38.768Z,23.23
2018-07-31T19:59:08.515Z,24.24
2018-07-31T20:01:38.276Z,24.29
2018-07-31T20:04:08.048Z,24.33
2018-07-31T20:06:37.703Z,24.37
2018-07-31T20:09:09.437Z,24.41
2018-07-31T20:11:38.816Z,24.34
2018-07-31T20:14:08.261Z,24.28
2018-07-31T20:16:38.229Z,24.37
2018-07-31T20:19:08.129Z,24.25
2018-07-31T20:21:37.812Z,24.34
2018-07-31T20:24:07.909Z,24.29
2018-07-31T20:26:38.112Z,24.25
2018-07-31T20:29:07.833Z,24.19
2018-07-31T20:31:37.679Z,24.15
2018-07-31T20:34:07.059Z,24.19
2018-07-31T20:36:37.652Z,24.18
2018-07-31T20:39:10.808Z,24.15
2018-07-31T20:41:41.278Z,24.06
2018-07-31T20:44:11.296Z,24.08
2018-07-31T20:46:40.755Z,24.04
2018-07-31T20:49:10.623Z,24.04
2018-07-31T20:51:40.594Z,24.03
2018-07-31T20:54:10.141Z,23.96
2018-07-31T20:56:40.030Z,23.89
2018-07-31T20:59:09.512Z,23.87
2018-07-31T21:01:38.973Z,23.81
2018-07-31T21:04:08.809Z,23.83
2018-07-31T21:06:38.705Z,23.73
2018-07-31T21:09:10.552Z,23.68
2018-07-31T21:11:40.045Z,23.68
2018-07-31T21:14:09.635Z,23.68
2018-07-31T21:16:39.341Z,23.65
2018-07-31T21:19:08.790Z,23.67
2018-07-31T21:21:38.189Z,23.63
2018-07-31T21:24:07.968Z,23.60
2018-07-31T21:26:37.526Z,23.64
2018-07-31T21:29:06.895Z,23.69
2018-07-31T21:31:36.592Z,23.68
2018-07-31T21:34:07.432Z,23.67
2018-07-31T21:36:36.901Z,23.66
2018-07-31T21:39:10.150Z,23.59
2018-07-31T21:41:39.740Z,23.53
2018-07-31T21:44:09.160Z,23.62
2018-07-31T21:46:38.708Z,23.50
2018-07-31T21:49:08.818Z,23.47
2018-07-31T21:51:38.277Z,23.45
2018-07-31T21:54:07.762Z,23.23
2018-07-31T21:56:37.150Z,23.21
2018-07-31T21:59:06.620Z,23.36
2018-07-31T22:01:36.485Z,23.40
2018-07-31T22:04:05.967Z,23.41
2018-07-31T22:06:35.307Z,23.38
2018-07-31T22:09:07.671Z,23.33
2018-07-31T22:11:37.082Z,23.18
2018-07-31T22:16:34.986Z,23.19
2018-07-31T22:19:04.425Z,23.16
2018-07-31T22:21:33.836Z,23.17
2018-07-31T22:24:04.022Z,23.12
2018-07-31T22:26:33.489Z,23.18
2018-07-31T22:29:04.200Z,23.22
2018-07-31T22:31:33.923Z,23.23
2018-07-31T22:34:03.365Z,23.19
2018-07-31T22:36:33.014Z,23.31
2018-07-31T22:39:03.335Z,23.33
2018-07-31T22:41:32.857Z,23.27
2018-07-31T22:44:02.377Z,23.19
2018-07-31T22:46:32.074Z,23.19
2018-07-31T22:49:01.516Z,23.25
2018-07-31T22:51:30.812Z,23.25
2018-07-31T22:54:00.988Z,23.19
2018-07-31T22:56:30.304Z,23.14
2018-07-31T22:58:59.725Z,23.12
2018-07-31T23:01:29.569Z,23.17
2018-07-31T23:03:59.058Z,23.15
2018-07-31T23:06:28.514Z,23.06
2018-07-31T23:08:58.743Z,23.07
2018-07-31T23:11:28.530Z,23.08
2018-07-31T23:13:58.084Z,23.03
2018-07-31T23:16:28.017Z,23.00
2018-07-31T23:18:57.402Z,23.05
2018-07-31T23:21:26.819Z,23.03
2018-07-31T23:23:56.696Z,23.00
2018-07-31T23:26:26.556Z,22.97
2018-07-31T23:28:56.119Z,23.00
2018-07-31T23:31:26.131Z,23.03
2018-07-31T23:33:55.641Z,23.05
2018-07-31T23:36:25.246Z,22.98
2018-07-31T23:38:55.158Z,22.99
2018-07-31T23:41:24.352Z,22.97
2018-07-31T23:43:53.769Z,22.76
2018-07-31T23:46:23.749Z,22.90
2018-07-31T23:48:53.344Z,22.92
2018-07-31T23:51:23.015Z,22.93
2018-07-31T23:53:53.179Z,22.93
2018-07-31T23:56:22.990Z,22.93
2018-07-31T23:58:52.480Z,22.94
